Tiempo atmosférico en la estación meteorológica de Aliseda, Cáceres (321 m.)



Fecha
DESCASC
Temp. máxima en grados centígrados (hora)
DESCASC
Temp. mínima en grados centígrados (hora)
DESCASC
Temp. media en grados centígrados
DESCASC
Racha de viento máxima en m/sg (hora)
DESCASC
Velocidad máxima media en intervalos de 10 minutos(hora)
DESCASC
Precipitaciones diarias en mm
DESCASC
Precipitaciones de 00:00 a 06:00 en mm
DESCASC
Precipitaciones de 06:00 a 12:00 en mm
DESCASC
Precipitaciones de 12:00 a 18:00 en mm
DESCASC
Precipitaciones de 18:00 a 24:00 en mm
DESCASC
22-01-2020 9.1 (17:20) 6 (06:00) 7.6 5.56 (08:10) 2.78 (08:10) 5.4 0 1.4 3.8 0.2
21-01-2020 11.1 (15:40) 1.2 (08:20) 6.2 9.44 (12:40) 4.72 (15:20) 0 0 0 0 0
20-01-2020 8.5 (14:20) 3.4 (08:20) 6 12.78 (00:20) 5.83 (00:20) 0 0 0 0 0
19-01-2020 11.9 (15:20) 5.2 (00:00) 8.5 17.78 (12:30) 9.17 (14:10) 0 0 0 0 0
18-01-2020 16.6 (16:40) 9 (00:00) 12.8 10.83 (17:00) 6.39 (21:40) 6.4 0.6 5.6 0.2 0
17-01-2020 14.9 (16:00) 8.8 (00:00) 11.8 8.61 (00:20) 6.11 (00:10) 0 0 0 0 0
16-01-2020 15.5 (16:30) 10.6 (00:00) 13.1 13.33 (21:00) 7.5 (21:00) 0 0 0 0 0
15-01-2020 15.6 (17:10) 8.9 (00:00) 12.3 15 (05:40) 7.78 (06:50) 0.2 0 0.2 0 0
14-01-2020 11.1 (14:50) 0.7 (00:00) 5.9 15.28 (20:10) 8.06 (23:20) 0.6 0 0 0.4 0.2
13-01-2020 12.4 (16:00) -1.9 (-00:0) 5.2 5.83 (18:50) 3.89 (18:50) 0 0 0 0 0
12-01-2020 13.1 (17:00) -2.7 (-00:0) 5.2 2.5 (15:40) 1.39 (15:40) 0 0 0 0 0
11-01-2020 12 (16:20) -0.4 (00:00) 5.8 3.89 (16:00) 2.22 (19:40) 0 0 0 0 0
10-01-2020 12.6 (15:40) 2.7 (00:00) 7.7 6.39 (13:40) 3.61 (13:10) 0 0 0 0 0
09-01-2020 14.5 (16:40) -0.9 (-00:0) 6.8 7.5 (21:20) 5.28 (22:20) 0 0 0 0 0
08-01-2020 12.3 (16:30) -2.4 (-00:0) 5 1.94 (15:50) 1.11 (12:50) 0 0 0 0 0
07-01-2020 13.3 (16:30) -1 (-00:0) 6.2 1.94 (16:50) 1.39 (19:10) 0 0 0 0 0
06-01-2020 12.6 (15:40) -1.1 (-00:0) 5.8 3.33 (15:20) 1.94 (19:10) 0 0 0 0 0
05-01-2020 12.8 (16:20) 0.5 (00:00) 6.7 2.5 (00:50) 1.67 (00:50) 0 0 0 0 0
04-01-2020 11.8 (16:10) 1.8 (00:00) 6.8 6.67 (16:10) 3.33 (16:30) 0 0 0 0 0
03-01-2020 13.1 (16:30) 4.9 (00:00) 9 6.11 (16:10) 3.33 (15:20) 0 0 0 0 0
02-01-2020 7.1 (15:30) -0.6 (-00:0) 3.2 2.78 (14:30) 1.94 (14:20) 0.2 0 0.2 0 0
01-01-2020 7.2 (16:50) 0.4 (00:00) 3.8 2.22 (15:20) 1.39 (15:20) 0.4 0.2 0.2 0 0
31-12-2019 11.1 (16:30) -0.2 (00:00) 5.5 1.67 (00:40) 1.11 (16:40) 0.2 0 0.2 0 0
30-12-2019 15.1 (16:20) 0.1 (00:00) 7.6 2.22 (18:10) 1.67 (18:20) 0 0 0 0 0
29-12-2019 15.6 (16:50) 1.4 (00:00) 8.5 3.33 (14:30) 1.94 (13:50) 0 0 0 0 0
28-12-2019 17.2 (16:30) 3.6 (00:00) 10.4 3.06 (20:40) 2.22 (20:10) 0 0 0 0 0
27-12-2019 16.1 (16:00) 4.1 (00:00) 10.1 3.61 (15:50) 2.22 (20:40) 0.2 0 0.2 0 0
26-12-2019 15 (16:40) 4.9 (00:00) 10 3.89 (00:10) 2.5 (01:00) 0 0 0 0 0
25-12-2019 16.3 (16:30) 4.9 (00:00) 10.6 5.28 (19:10) 3.06 (23:59) 0 0 0 0 0

Gráficas

Temp. máximas Temp. mínimas Temp. medias Precipitaciones Rachas de viento máximas Velocidades máximas media en intervalos de 10 minutos

Datos horarios

Fecha y hora oficial Temperatura (ºC) Velocidad del viento (km/h) Dirección del viento Racha (km/h) Dirección de racha Precipitación (mm) Presión (hPa) Tendencia (hPa) Humedad (%)
2020-01-23 23:00:00 9.3 15 Este 32 Este 0 -- -- 87
2020-01-23 22:00:00 9.3 16 Sudeste 29 Este 0 -- -- 85
2020-01-23 21:00:00 9.3 15 Este 30 Este 0 -- -- 85
2020-01-23 20:00:00 9.4 15 Este 26 Este 0 -- -- 86
2020-01-23 19:00:00 9.7 14 Este 27 Sudeste 0 -- -- 85
2020-01-23 18:00:00 10.2 15 Este 32 Este 0 -- -- 82
2020-01-23 17:00:00 10.4 16 Este 28 Este 0 -- -- 82
2020-01-23 16:00:00 9.7 14 Este 26 Este 0 -- -- 90
2020-01-23 15:00:00 9.2 17 Este 31 Este 0.2 -- -- 89
2020-01-23 14:00:00 9.1 15 Este 26 Este 0 -- -- 92
2020-01-23 13:00:00 9.5 14 Este -- -- -- -- -- 89
2020-01-23 12:00:00 9.1 15 Este 26 Este 0 -- -- 90
2020-01-23 11:00:00 8.9 13 Este 24 Este 0 -- -- 90
2020-01-23 10:00:00 7.9 13 Este 22 Este 0 -- -- 93
2020-01-23 09:00:00 7.3 11 Este 25 Este 0.4 -- -- 96
2020-01-23 08:00:00 7.6 14 Este 24 Este 1 -- -- 95
2020-01-23 07:00:00 7.4 14 Este 28 Este 0 -- -- 96
2020-01-23 06:00:00 7.4 14 Este 27 Este 0.6 -- -- 96
2020-01-23 05:00:00 7.3 12 Este 24 Este 1.8 -- -- 96
2020-01-23 04:00:00 7.1 6 Este 28 Sudeste 2 -- -- 96
2020-01-23 03:00:00 8.2 10 Este 25 Este 0.4 -- -- 89
2020-01-23 02:00:00 8.6 12 Sudeste 21 Sudeste 0 -- -- 84
2020-01-23 01:00:00 7.6 6 Este 12 Este 0 -- -- 88
2020-01-23 00:00:00 7.6 8 Este 12 Este 0.2 -- -- 89
2020-01-22 23:00:00 7.6 5 Este 12 Sudeste 0 -- -- 90
2020-01-22 22:00:00 8.1 6 Sudeste 14 Este 0 -- -- 87
2020-01-22 21:00:00 8 7 Este 11 Este 0 -- -- 88
2020-01-22 20:00:00 8.4 6 Sudeste 9 Sudeste 0 -- -- 88
2020-01-22 19:00:00 8.5 7 Sudeste 9 Sudeste 0 -- -- 88
2020-01-22 18:00:00 8.8 4 Sudeste 14 Este 0 -- -- 88
2020-01-22 17:00:00 8.9 8 Este 18 Este 0 -- -- 90
2020-01-22 16:00:00 8.7 7 Este 15 Este 0.6 -- -- 93
2020-01-22 15:00:00 8 7 Este 14 Este 0.8 -- -- 95
2020-01-22 14:00:00 7.4 6 Este 12 Este 1 -- -- 95
2020-01-22 13:00:00 7.2 4 Este 16 Sudeste 1.4 -- -- 95
2020-01-22 12:00:00 7 10 Este 17 Este 1 -- -- 91
2020-01-22 11:00:00 7.1 6 Este 18 Este 0.4 -- -- 88
2020-01-22 10:00:00 7.2 6 Este 15 Este 0 -- -- 84
2020-01-22 09:00:00 7.3 8 Este 20 Este 0 -- -- 81
2020-01-22 08:00:00 7.3 9 Este 18 Este 0 -- -- 80
2020-01-22 07:00:00 6.4 6 Sudeste 14 Este 0 -- -- 83
2020-01-22 06:00:00 6 5 Sudeste 14 Este 0 -- -- 84
2020-01-22 05:00:00 6.4 7 Este 12 Este 0 -- -- 84
2020-01-22 04:00:00 6.3 3 Este 16 Este 0 -- -- 83
2020-01-22 03:00:00 6.5 6 Este 12 Este 0 -- -- 82
2020-01-22 02:00:00 6.5 2 Nordeste 12 Este 0 -- -- 83
2020-01-22 01:00:00 6.8 8 Este 17 Este 0 -- -- 84
2020-01-22 00:00:00 7.7 9 Este 23 Este 0 -- -- 77
2020-01-21 23:00:00 8 8 Este 16 Este 0 -- -- 73
2020-01-21 22:00:00 8.1 9 Este 19 Este 0 -- -- 73
2020-01-21 21:00:00 7.9 8 Nordeste 15 Nordeste 0 -- -- 73
2020-01-21 20:00:00 7.5 3 Este 19 Norte 0 -- -- 71
2020-01-21 19:00:00 7.2 7 Nordeste 21 Nordeste 0 -- -- 72
2020-01-21 18:00:00 8.1 6 Nordeste 21 Nordeste 0 -- -- 68
2020-01-21 17:00:00 9.2 7 Norte 22 Norte 0 -- -- 65
2020-01-21 16:00:00 10.3 15 Nordeste 33 Este 0 -- -- 62
2020-01-21 15:00:00 10.1 12 Nordeste 31 Nordeste 0 -- -- 61
2020-01-21 14:00:00 9.6 15 Nordeste 28 Nordeste 0 -- -- 63
2020-01-21 13:00:00 8.7 13 Nordeste 34 Nordeste 0 -- -- 62
2020-01-21 12:00:00 8.8 13 Nordeste 26 Nordeste 0 -- -- 63
2020-01-21 11:00:00 6.5 13 Nordeste 19 Nordeste 0 -- -- 67
2020-01-21 10:00:00 4.8 7 Este 22 Nordeste 0 -- -- 71
2020-01-21 09:00:00 1.8 8 Sur 13 Sur 0 -- -- 80
2020-01-21 08:00:00 2 3 Este 10 Nordeste 0 -- -- 78
2020-01-21 07:00:00 2.7 6 Sudeste 12 Nordeste 0 -- -- 76
2020-01-21 06:00:00 2.9 3 Este 17 Oeste 0 -- -- 77
2020-01-21 05:00:00 3 5 Oeste 24 Este 0 -- -- 78
2020-01-21 04:00:00 2.7 7 Oeste 20 Oeste 0 -- -- 78
2020-01-21 03:00:00 3.5 5 Oeste 22 Nordeste 0 -- -- 74
2020-01-21 02:00:00 6.7 7 Nordeste 28 Nordeste 0 -- -- 63
2020-01-21 01:00:00 7 8 Nordeste 28 Este 0 -- -- 64
2020-01-21 00:00:00 7.2 8 Nordeste 29 Este 0 -- -- 64
2020-01-20 23:00:00 7.5 11 Este 31 Este 0 -- -- 61
2020-01-20 22:00:00 7.4 9 Nordeste 26 Nordeste 0 -- -- 62
2020-01-20 21:00:00 5.9 4 Nordeste 13 Nordeste 0 -- -- 66
2020-01-20 20:00:00 6.5 7 Nordeste 23 Nordeste 0 -- -- 66
2020-01-20 19:00:00 6 6 Nordeste 31 Nordeste 0 -- -- 70
2020-01-20 18:00:00 5.9 10 Nordeste 39 Nordeste 0 -- -- 72
2020-01-20 17:00:00 7.8 18 Nordeste 35 Nordeste 0 -- -- 56
2020-01-20 16:00:00 7.3 16 Nordeste 32 Nordeste 0 -- -- 53
2020-01-20 15:00:00 7.2 10 Este 30 Nordeste 0 -- -- 48
2020-01-20 14:00:00 7.8 18 Nordeste 33 Nordeste 0 -- -- 50
2020-01-20 13:00:00 8 16 Nordeste 31 Nordeste 0 -- -- 49
2020-01-20 12:00:00 5.7 10 Nordeste 21 Norte 0 -- -- 57
2020-01-20 11:00:00 4.6 14 Nordeste 27 Nordeste 0 -- -- 57
2020-01-20 10:00:00 3.9 13 Nordeste 29 Nordeste 0 -- -- 59
2020-01-20 09:00:00 3.4 13 Nordeste 33 Nordeste 0 -- -- 58
2020-01-20 08:00:00 3.5 12 Nordeste 24 Nordeste 0 -- -- 58
2020-01-20 07:00:00 4 15 Nordeste 34 Nordeste 0 -- -- 58
2020-01-20 06:00:00 4.4 17 Nordeste 33 Nordeste 0 -- -- 55
2020-01-20 05:00:00 4.6 10 Nordeste 37 Nordeste 0 -- -- 56
2020-01-20 04:00:00 4.8 17 Nordeste 34 Nordeste 0 -- -- 55
2020-01-20 03:00:00 4.1 14 Nordeste 26 Norte 0 -- -- 57
2020-01-20 02:00:00 4.5 11 Nordeste 29 Nordeste 0 -- -- 54
2020-01-20 01:00:00 4.9 15 Nordeste 46 Nordeste 0 -- -- 52
2020-01-20 00:00:00 5.2 22 Nordeste 48 Nordeste 0 -- -- 51
2020-01-19 23:00:00 5.6 24 Nordeste 54 Nordeste 0 -- -- 52
2020-01-19 22:00:00 6.2 22 Nordeste 54 Nordeste 0 -- -- 51
2020-01-19 21:00:00 7 21 Nordeste 46 Nordeste 0 -- -- 50
2020-01-19 20:00:00 7.9 21 Nordeste 49 Nordeste 0 -- -- 50
2020-01-19 19:00:00 9.1 20 Nordeste 40 Norte 0 -- -- 48
2020-01-19 18:00:00 10.1 15 Nordeste 44 Nordeste 0 -- -- 46
2020-01-19 17:00:00 11.2 15 Nordeste 46 Nordeste 0 -- -- 46
2020-01-19 16:00:00 11.7 23 Nordeste 56 Nordeste 0 -- -- 43
2020-01-19 15:00:00 11.8 30 Nordeste 61 Nordeste 0 -- -- 43
2020-01-19 14:00:00 11.7 28 Nordeste 58 Nordeste 0 -- -- 50
2020-01-19 13:00:00 11.5 24 Norte 64 Noroeste 0 -- -- 54
2020-01-19 12:00:00 10.6 23 Norte 43 Nordeste 0 -- -- 69
2020-01-19 11:00:00 9.3 9 Norte 19 Norte 0 -- -- 80
2020-01-19 10:00:00 7.5 6 Noroeste 18 Noroeste 0 -- -- 87
2020-01-19 09:00:00 6.1 2 Sudoeste 15 Noroeste 0 -- -- 91
2020-01-19 08:00:00 5.8 3 Sudoeste 10 Noroeste 0 -- -- 93
2020-01-19 07:00:00 7.2 2 Oeste 6 Sur 0 -- -- 90
2020-01-19 06:00:00 7.8 2 Sudoeste 17 Oeste 0 -- -- 92
2020-01-19 05:00:00 8.1 10 Oeste 19 Oeste 0 -- -- 91
2020-01-19 04:00:00 8.3 11 Sudoeste 19 Sudoeste 0 -- -- 89
2020-01-19 03:00:00 8.1 10 Sudoeste 21 Sudoeste 0 -- -- 86
2020-01-19 02:00:00 8.4 12 Oeste 25 Oeste 0 -- -- 84
2020-01-19 01:00:00 9 8 Oeste 31 Oeste 0 -- -- 80
2020-01-19 00:00:00 9.6 12 Oeste 37 Oeste 0 -- -- 81
2020-01-18 23:00:00 10.6 17 Oeste 35 Oeste 0 -- -- 84
2020-01-18 22:00:00 11.3 19 Oeste 37 Oeste 0 -- -- 84
2020-01-18 21:00:00 11.9 17 Oeste 36 Oeste 0 -- -- 80
2020-01-18 20:00:00 12.6 14 Oeste 30 Sudoeste 0 -- -- 80
2020-01-18 19:00:00 14 13 Oeste 24 Sudoeste 0 -- -- 80
2020-01-18 18:00:00 14.5 5 Oeste 32 Sudoeste 0 -- -- 77
2020-01-18 17:00:00 16.1 22 Oeste 39 Oeste 0.2 -- -- 73
2020-01-18 16:00:00 15.3 20 Oeste 33 Oeste 0 -- -- 82
2020-01-18 15:00:00 15.1 12 Sudoeste 22 Sudoeste 0 -- -- 86
2020-01-18 14:00:00 14.4 9 Sudoeste 21 Sudoeste 0 -- -- 90
2020-01-18 13:00:00 12.7 14 Sudoeste 22 Sur 0 -- -- 95
2020-01-18 12:00:00 11.8 5 Noroeste 30 Sudoeste 0 -- -- 95
2020-01-18 11:00:00 11.1 13 Sudeste 25 Sur 0.2 -- -- 95
2020-01-18 10:00:00 10.1 5 Nordeste 17 Este 0.4 -- -- 97
2020-01-18 09:00:00 10.4 10 Este 32 Sudeste 2.2 -- -- 93
2020-01-18 08:00:00 10.7 8 Este 34 Nordeste 2.6 -- -- 93
2020-01-18 07:00:00 11 13 Sur 31 Sur 0.2 -- -- 88
2020-01-18 06:00:00 11 9 Sur 26 Sudoeste 0 -- -- 85
2020-01-18 05:00:00 11.1 3 Este 21 Sur 0.2 -- -- 84
2020-01-18 04:00:00 11.2 13 Sudeste 32 Sudeste 0.4 -- -- 83
2020-01-18 03:00:00 11.3 13 Sudeste 27 Sudeste 0 -- -- 85
2020-01-18 02:00:00 9.4 4 Oeste 15 Sudeste 0 -- -- 90
2020-01-18 01:00:00 9.7 0 Calma 22 Sur 0 -- -- 87
2020-01-18 00:00:00 9 0 Calma 17 Sur 0 -- -- 88
2020-01-17 23:00:00 11.2 9 Sur 18 Sur 0 -- -- 84
2020-01-17 22:00:00 10.2 8 Sudoeste 10 Sur 0 -- -- 83
2020-01-17 21:00:00 9.1 4 Sudoeste 6 Sur 0 -- -- 85
2020-01-17 20:00:00 9.7 4 Sudoeste 9 Sur 0 -- -- 83
2020-01-17 19:00:00 9.5 7 Sur 8 Sur 0 -- -- 81
2020-01-17 18:00:00 11.3 3 Sur 10 Oeste 0 -- -- 75
2020-01-17 17:00:00 14.4 5 Noroeste 14 Oeste 0 -- -- 62
2020-01-17 16:00:00 14.9 8 Oeste 20 Oeste 0 -- -- 60
2020-01-17 15:00:00 14.2 6 Oeste 17 Oeste 0 -- -- 67
2020-01-17 14:00:00 13 9 Oeste 21 Oeste 0 -- -- 74
2020-01-17 13:00:00 12 9 Sudoeste 21 Sudoeste 0 -- -- 90
2020-01-17 12:00:00 10.7 15 Sur 24 Sudoeste 0 -- -- 96
2020-01-17 11:00:00 9.8 15 Sudoeste 25 Sudoeste 0 -- -- 97
2020-01-17 10:00:00 9.2 18 Sudoeste 29 Sudoeste 0 -- -- 97
2020-01-17 09:00:00 9.4 15 Sudoeste 27 Sudoeste 0 -- -- 95
2020-01-17 08:00:00 9.1 15 Sudoeste 23 Sudoeste 0 -- -- 97
2020-01-17 07:00:00 9 10 Sudoeste 24 Sudoeste 0 -- -- 97
2020-01-17 06:00:00 9.2 15 Sudoeste 22 Sudoeste 0 -- -- 96
2020-01-17 05:00:00 9.4 15 Sudoeste 21 Sudoeste 0 -- -- 94
2020-01-17 04:00:00 9.4 13 Sudoeste 23 Sudoeste 0 -- -- 94
2020-01-17 03:00:00 10.1 15 Sudoeste 21 Sur 0 -- -- 89
2020-01-17 02:00:00 10.1 15 Sur 23 Sur 0 -- -- 93
2020-01-17 01:00:00 10.5 17 Sur 31 Sur 0 -- -- 92
2020-01-17 00:00:00 10.6 19 Sur 28 Sur 0 -- -- 91
2020-01-16 23:00:00 10.9 11 Sudoeste 27 Sudoeste 0 -- -- 91
2020-01-16 22:00:00 12 15 Sudoeste 41 Sur 0 -- -- 78
2020-01-16 21:00:00 13.4 27 Sur 48 Sur 0 -- -- 66
2020-01-16 20:00:00 13.7 21 Sur 39 Sudoeste 0 -- -- 63
2020-01-16 19:00:00 13.8 11 Sur 37 Sur 0 -- -- 64
2020-01-16 18:00:00 14.2 8 Sudoeste 28 Sudoeste 0 -- -- 63
2020-01-16 17:00:00 15 13 Sudoeste 31 Sudoeste 0 -- -- 56
2020-01-16 16:00:00 14.7 11 Sur 28 Sudoeste 0 -- -- 65
2020-01-16 15:00:00 14.4 17 Sur 31 Sudoeste 0 -- -- 66
2020-01-16 14:00:00 13.5 17 Sur 34 Sur 0 -- -- 73
2020-01-16 13:00:00 13.1 14 Sur 31 Sudoeste 0 -- -- 77
2020-01-16 12:00:00 11.9 9 Sur 18 Sur 0 -- -- 82
2020-01-16 11:00:00 11.7 8 Sudeste 28 Este 0 -- -- 83
2020-01-16 10:00:00 11.2 8 Sudeste 35 Sur 0 -- -- 84
2020-01-16 09:00:00 11.3 12 Sur 34 Sur 0 -- -- 85
2020-01-16 08:00:00 11.6 8 Sudeste 30 Sur 0 -- -- 86
2020-01-16 07:00:00 11.8 13 Sur 44 Sur 0 -- -- 86
2020-01-16 06:00:00 12 14 Sur 30 Sur 0 -- -- 88
2020-01-16 05:00:00 12.3 18 Sur 35 Sur 0 -- -- 88
2020-01-16 04:00:00 12.6 22 Sur 40 Sur 0 -- -- 88
2020-01-16 03:00:00 12.5 6 Sudeste 26 Sudeste 0 -- -- 88
2020-01-16 02:00:00 12.6 11 Sur 28 Sudoeste 0 -- -- 87
2020-01-16 01:00:00 12.6 9 Sudeste 30 Sudeste 0 -- -- 86
2020-01-16 00:00:00 12.7 14 Sudeste 37 Sudeste 0 -- -- 86
2020-01-15 23:00:00 12.8 17 Sudeste 30 Sudeste 0 -- -- 86
2020-01-15 22:00:00 12.9 5 Sudeste 18 Sur 0 -- -- 85
2020-01-15 21:00:00 13.7 4 Nordeste 24 Oeste 0 -- -- 83
2020-01-15 20:00:00 14.2 6 Sudeste 32 Sudoeste 0 -- -- 82
2020-01-15 19:00:00 14.5 9 Sur 30 Sudoeste 0 -- -- 79
2020-01-15 18:00:00 15.1 12 Sur 31 Sur 0 -- -- 78
2020-01-15 17:00:00 15.4 9 Sur 31 Sur 0 -- -- 77
2020-01-15 16:00:00 15.1 16 Sur 33 Sur 0 -- -- 77
2020-01-15 15:00:00 14.5 15 Sur 31 Sur 0 -- -- 81
2020-01-15 14:00:00 13.8 11 Sur 32 Sur 0 -- -- 84
2020-01-15 13:00:00 12.6 17 Sur 46 Sur 0 -- -- 84
2020-01-15 12:00:00 11.5 21 Sur 46 Sur 0 -- -- 85
2020-01-15 11:00:00 11.5 22 Sur 39 Sur 0 -- -- 83
2020-01-15 10:00:00 10.9 10 Sudeste 45 Sur 0 -- -- 82
2020-01-15 09:00:00 10.3 7 Sudeste 34 Sudeste 0 -- -- 83
2020-01-15 08:00:00 9.9 8 Sudeste 45 Sur 0.2 -- -- 83
2020-01-15 07:00:00 9.8 28 Sur 53 Sur 0 -- -- 81
2020-01-15 06:00:00 10.3 25 Sur 54 Sur 0 -- -- 76
2020-01-15 05:00:00 9.2 10 Este 33 Sudeste 0 -- -- 80
2020-01-15 04:00:00 9 10 Este 32 Este 0 -- -- 80
2020-01-15 03:00:00 9.4 6 Este 24 Este 0 -- -- 80
2020-01-15 02:00:00 9.6 7 Sudeste 30 Este 0 -- -- 82
2020-01-15 01:00:00 10 9 Sur 49 Sudoeste 0 -- -- 81
2020-01-15 00:00:00 10.2 19 Sur 45 Sur 0 -- -- 82
2020-01-14 23:00:00 10.4 23 Sur 41 Sur 0 -- -- 82
2020-01-14 22:00:00 10.5 12 Sur 45 Sur 0 -- -- 81
2020-01-14 21:00:00 10.7 26 Sur 55 Sur 0 -- -- 81
2020-01-14 20:00:00 10.8 25 Sur 53 Sur 0 -- -- 80
2020-01-14 19:00:00 9.9 17 Sudeste 39 Sudeste 0.2 -- -- 85
2020-01-14 18:00:00 9.5 6 Este 32 Sudeste 0.4 -- -- 89
2020-01-14 17:00:00 10.4 14 Sur 28 Sudeste 0 -- -- 80
2020-01-14 16:00:00 10.8 9 Sur 28 Sudoeste 0 -- -- 72
2020-01-14 15:00:00 11.1 13 Sudoeste 43 Sudoeste 0 -- -- 66
2020-01-14 14:00:00 10.8 20 Sur 40 Sur 0 -- -- 65
2020-01-14 13:00:00 10.3 20 Sur 40 Sudeste 0 -- -- 68
2020-01-14 12:00:00 9.7 19 Sudeste 39 Sudeste 0 -- -- 71
2020-01-14 11:00:00 9 22 Sudeste 35 Sudeste 0 -- -- 71
2020-01-14 10:00:00 7.2 16 Sudeste 26 Sudeste 0 -- -- 76
2020-01-14 09:00:00 5.6 4 Norte 21 Sudeste 0 -- -- 85
2020-01-14 08:00:00 3.7 3 Norte 9 Noroeste 0 -- -- 93
2020-01-14 07:00:00 3.2 3 Nordeste 15 Este 0 -- -- 92
2020-01-14 06:00:00 2.1 3 Norte 13 Oeste 0 -- -- 93
2020-01-14 05:00:00 1.7 0 Calma 4 Oeste 0 -- -- 95
2020-01-14 04:00:00 1.6 2 Nordeste 6 Norte 0 -- -- 95
2020-01-14 03:00:00 0.8 3 Sudeste 9 Noroeste 0 -- -- 95
2020-01-14 02:00:00 0.9 0 Calma 3 Sur 0 -- -- 93
2020-01-14 01:00:00 2 0 Calma 4 Sur 0 -- -- 92
2020-01-14 00:00:00 2.5 3 Sur 6 Sudeste 0 -- -- 91
2020-01-13 23:00:00 2.9 0 Calma 3 Sudeste 0 -- -- 87
2020-01-13 22:00:00 5.5 6 Sudoeste 13 Sur 0 -- -- 78
2020-01-13 21:00:00 7.1 8 Sudoeste 18 Sur 0 -- -- 75
2020-01-13 20:00:00 7.7 11 Sur 21 Sur 0 -- -- 73
2020-01-13 19:00:00 8.4 13 Sur 21 Sur 0 -- -- 69
2020-01-13 18:00:00 9.2 6 Oeste 15 Sudoeste 0 -- -- 64
2020-01-13 17:00:00 11.5 8 Sudoeste 15 Sudoeste 0 -- -- 55
2020-01-13 16:00:00 12.4 4 Sudoeste 15 Sur 0 -- -- 56
2020-01-13 15:00:00 11.7 9 Sur 19 Sur 0 -- -- 56
2020-01-13 14:00:00 11.2 11 Sur 20 Sur 0 -- -- 61
2020-01-13 13:00:00 8 2 Nordeste 4 Nordeste 0 -- -- 78
2020-01-13 12:00:00 5.4 0 Calma 3 Nordeste 0 -- -- 87
2020-01-13 11:00:00 2.4 0 Calma 4 Sudoeste 0 -- -- 92
2020-01-13 10:00:00 -0.5 0 Calma 3 Sur 0 -- -- 98
2020-01-13 09:00:00 -1.8 0 Calma 3 Noroeste 0 -- -- 96
2020-01-13 08:00:00 -1.6 0 Calma 2 Sudeste 0 -- -- 96
2020-01-13 07:00:00 -0.9 0 Calma 2 Sudeste 0 -- -- 96
2020-01-13 06:00:00 -1.3 0 Calma 2 Noroeste 0 -- -- 95
2020-01-13 05:00:00 -0.9 0 Calma 2 Este 0 -- -- 95
2020-01-13 04:00:00 -0.1 0 Calma 3 Noroeste 0 -- -- 95
2020-01-13 03:00:00 0.1 0 Calma 0 Calma 0 -- -- 95
2020-01-13 02:00:00 0.3 0 Calma 3 Nordeste 0 -- -- 93
2020-01-13 01:00:00 1 0 Calma 3 Sudeste 0 -- -- 92
2020-01-13 00:00:00 1.8 0 Calma 8 Sur 0 -- -- 89
2020-01-12 23:00:00 3.4 0 Calma 8 Sur 0 -- -- 86
2020-01-12 22:00:00 3.7 0 Calma 6 Sur 0 -- -- 85
2020-01-12 21:00:00 3.9 0 Calma 5 Sudoeste 0 -- -- 84
2020-01-12 20:00:00 4.7 5 Sur 8 Sur 0 -- -- 81
2020-01-12 19:00:00 5.1 2 Sur 6 Sur 0 -- -- 79
2020-01-12 18:00:00 7.4 4 Sur 6 Sudeste 0 -- -- 72
2020-01-12 17:00:00 13.1 3 Sudeste 7 Este 0 -- -- 56
2020-01-12 16:00:00 12.8 2 Noroeste 9 Oeste 0 -- -- 51
2020-01-12 15:00:00 12.3 3 Oeste 8 Sudoeste 0 -- -- 55
2020-01-12 14:00:00 10.7 2 Oeste 5 Oeste 0 -- -- 61
2020-01-12 13:00:00 8.6 0 Calma 5 Noroeste 0 -- -- 70
2020-01-12 12:00:00 5.4 0 Calma 4 Nordeste 0 -- -- 85
2020-01-12 11:00:00 3.1 0 Calma 2 Nordeste 0 -- -- 92
2020-01-12 10:00:00 -0.6 0 Calma 3 Noroeste 0 -- -- 98
2020-01-12 09:00:00 -2.6 0 Calma 0 Calma 0 -- -- 96
2020-01-12 08:00:00 -2.4 0 Calma 0 Calma 0 -- -- 96
2020-01-12 07:00:00 -2.4 0 Calma 2 Oeste 0 -- -- 95
2020-01-12 06:00:00 -1.9 0 Calma 3 Sur 0 -- -- 95
2020-01-12 05:00:00 -0.8 0 Calma 4 Sur 0 -- -- 95
2020-01-12 04:00:00 -0.6 0 Calma 6 Sur 0 -- -- 92
2020-01-12 03:00:00 0 0 Calma 5 Sur 0 -- -- 92
2020-01-12 02:00:00 0.3 0 Calma 3 Sur 0 -- -- 92
2020-01-12 01:00:00 0.5 0 Calma 2 Sur 0 -- -- 92
2020-01-12 00:00:00 1.1 0 Calma 4 Noroeste 0 -- -- 89
2020-01-11 23:00:00 2.2 0 Calma 5 Sudeste 0 -- -- 87
2020-01-11 22:00:00 2.8 2 Sudeste 6 Sur 0 -- -- 84
2020-01-11 21:00:00 3.9 0 Calma 8 Sudeste 0 -- -- 81
2020-01-11 20:00:00 5.3 6 Sudeste 11 Sudeste 0 -- -- 78
2020-01-11 19:00:00 5.4 5 Sur 8 Sudeste 0 -- -- 75
2020-01-11 18:00:00 7.7 4 Sur 8 Sudeste 0 -- -- 70
2020-01-11 17:00:00 11.9 4 Este 12 Este 0 -- -- 55
2020-01-11 16:00:00 11.9 6 Nordeste 14 Norte 0 -- -- 53
2020-01-11 15:00:00 11.3 3 Nordeste 13 Este 0 -- -- 58
2020-01-11 14:00:00 10.1 5 Nordeste 9 Nordeste 0 -- -- 65
2020-01-11 13:00:00 9 2 Nordeste 11 Este 0 -- -- 71
2020-01-11 12:00:00 7.5 6 Este 10 Este 0 -- -- 69
2020-01-11 11:00:00 4.2 0 Calma 2 Noroeste 0 -- -- 88
2020-01-11 10:00:00 1 0 Calma 3 Sur 0 -- -- 96
2020-01-11 09:00:00 -0.3 0 Calma 4 Sur 0 -- -- 94
2020-01-11 08:00:00 0.5 0 Calma 9 Oeste 0 -- -- 91
2020-01-11 07:00:00 1 2 Sudoeste 9 Sudoeste 0 -- -- 90
2020-01-11 06:00:00 1.5 0 Calma 6 Sudoeste 0 -- -- 88
2020-01-11 05:00:00 2.1 3 Sudoeste 6 Sudoeste 0 -- -- 86
2020-01-11 04:00:00 3.2 0 Calma 8 Sudoeste 0 -- -- 84
2020-01-11 03:00:00 3 0 Calma 11 Sur 0 -- -- 85
2020-01-11 02:00:00 3.7 2 Sudoeste 10 Sudoeste 0 -- -- 83
2020-01-11 01:00:00 2.9 2 Sudoeste 8 Sudoeste 0 -- -- 86
2020-01-11 00:00:00 2.7 4 Sudoeste 7 Sudoeste 0 -- -- 86
2020-01-10 23:00:00 4 5 Sudeste 9 Sudeste 0 -- -- 82
2020-01-10 22:00:00 4.6 4 Sudeste 8 Sudeste 0 -- -- 80
2020-01-10 21:00:00 5.9 3 Este 10 Sudeste 0 -- -- 74
2020-01-10 20:00:00 6.4 4 Sudeste 8 Este 0 -- -- 73
2020-01-10 19:00:00 7.2 4 Sudeste 7 Sudeste 0 -- -- 72
2020-01-10 18:00:00 10.3 2 Nordeste 14 Norte 0 -- -- 62
2020-01-10 17:00:00 12.1 7 Nordeste 21 Nordeste 0 -- -- 52
2020-01-10 16:00:00 12.5 8 Nordeste 16 Nordeste 0 -- -- 50
2020-01-10 15:00:00 12.4 10 Nordeste 20 Nordeste 0 -- -- 57
2020-01-10 14:00:00 11.8 10 Nordeste 23 Nordeste 0 -- -- 62
2020-01-10 13:00:00 11.5 9 Nordeste 19 Nordeste 0 -- -- 63
2020-01-10 12:00:00 9.6 11 Nordeste 19 Nordeste 0 -- -- 66
2020-01-10 11:00:00 7.1 5 Oeste 14 Noroeste 0 -- -- 79
2020-01-10 10:00:00 5.4 6 Oeste 16 Noroeste 0 -- -- 80
2020-01-10 09:00:00 3.9 4 Sudoeste 18 Noroeste 0 -- -- 83
2020-01-10 08:00:00 4 4 Oeste 14 Noroeste 0 -- -- 83
2020-01-10 07:00:00 4.2 5 Oeste 10 Oeste 0 -- -- 83
2020-01-10 06:00:00 4.4 4 Sudoeste 10 Noroeste 0 -- -- 85
2020-01-10 05:00:00 5 3 Oeste 15 Noroeste 0 -- -- 85
2020-01-10 04:00:00 5.1 3 Oeste 12 Oeste 0 -- -- 87
2020-01-10 03:00:00 6.3 6 Oeste 13 Oeste 0 -- -- 87
2020-01-10 02:00:00 7.7 5 Oeste 15 Oeste 0 -- -- 82
2020-01-10 01:00:00 8.8 4 Oeste 22 Oeste 0 -- -- 83
2020-01-10 00:00:00 9.6 12 Sudoeste 21 Sudoeste 0 -- -- 81
2020-01-09 23:00:00 10 16 Sudoeste 25 Oeste 0 -- -- 80
2020-01-09 22:00:00 10.7 16 Sudoeste 27 Oeste 0 -- -- 82
2020-01-09 21:00:00 12.1 14 Oeste 26 Oeste 0 -- -- 88
2020-01-09 20:00:00 11.9 17 Sudoeste 24 Sudoeste 0 -- -- 84
2020-01-09 19:00:00 12 17 Sudoeste 24 Sudoeste 0 -- -- 78
2020-01-09 18:00:00 12.6 14 Sur 21 Sudoeste 0 -- -- 75
2020-01-09 17:00:00 14.3 3 Noroeste 4 Oeste 0 -- -- 65
2020-01-09 16:00:00 13.3 0 Calma 5 Noroeste 0 -- -- 64
2020-01-09 15:00:00 12.3 0 Calma 7 Norte 0 -- -- 72
2020-01-09 14:00:00 10.4 5 Norte 11 Sudeste 0 -- -- 81
2020-01-09 13:00:00 6.6 2 Sur 10 Noroeste 0 -- -- 97
2020-01-09 12:00:00 4.3 3 Noroeste 10 Noroeste 0 -- -- 98
2020-01-09 11:00:00 3 2 Este 8 Noroeste 0 -- -- 100
2020-01-09 10:00:00 0.8 0 Calma 4 Noroeste 0 -- -- 100
2020-01-09 09:00:00 0.1 2 Sur 5 Oeste 0 -- -- 100
2020-01-09 08:00:00 -0.8 0 Calma 6 Noroeste 0 -- -- 99
2020-01-09 07:00:00 -0.6 0 Calma 4 Sur 0 -- -- 99
2020-01-09 06:00:00 0.5 3 Sur 5 Noroeste 0 -- -- 99
2020-01-09 05:00:00 -0.3 0 Calma 5 Oeste 0 -- -- 98
2020-01-09 04:00:00 0.1 0 Calma 3 Sur 0 -- -- 98
2020-01-09 03:00:00 0.7 0 Calma -- -- 0 -- -- 98
2020-01-09 02:00:00 1.3 0 Calma 3 Sur 0 -- -- 97
2020-01-09 01:00:00 2 0 Calma 5 Noroeste 0 -- -- 96
2020-01-09 00:00:00 2.9 0 Calma 5 Sur 0 -- -- 97
2020-01-08 23:00:00 3.5 2 Oeste 6 Sur 0 -- -- 95
2020-01-08 22:00:00 4.1 3 Sur 6 Sur 0 -- -- 94
2020-01-08 21:00:00 4.5 0 Calma 3 Sur 0 -- -- 94
2020-01-08 20:00:00 5.2 3 Sur 6 Sur 0 -- -- 94
2020-01-08 19:00:00 6 3 Sur 7 Sur 0 -- -- 91
2020-01-08 18:00:00 7.6 3 Sudoeste 5 Oeste 0 -- -- 87
2020-01-08 17:00:00 12 4 Noroeste 7 Oeste 0 -- -- 75
2020-01-08 16:00:00 11.9 2 Oeste 7 Oeste 0 -- -- 77
2020-01-08 15:00:00 9.9 0 Calma 4 Noroeste 0 -- -- 81
2020-01-08 14:00:00 7 0 Calma 5 Noroeste 0 -- -- 93
2020-01-08 13:00:00 4.7 3 Oeste 6 Oeste 0 -- -- 98
2020-01-08 12:00:00 2.1 2 Noroeste 4 Oeste 0 -- -- 99
2020-01-08 11:00:00 0.4 0 Calma 2 Oeste 0 -- -- 99
2020-01-08 10:00:00 -1.9 0 Calma 2 Noroeste 0 -- -- 99
2020-01-08 09:00:00 -2.3 0 Calma 3 Nordeste 0 -- -- 98
2020-01-08 08:00:00 -2 2 Este 4 Este 0 -- -- 98
2020-01-08 07:00:00 -1.8 2 Nordeste 4 Este 0 -- -- 98
2020-01-08 06:00:00 -2.1 0 Calma 3 Oeste 0 -- -- 97
2020-01-08 05:00:00 -1.6 0 Calma 3 Noroeste 0 -- -- 97
2020-01-08 04:00:00 -0.8 0 Calma 3 Este 0 -- -- 97
2020-01-08 03:00:00 0 0 Calma -- -- 0 -- -- 97
2020-01-08 02:00:00 0.2 0 Calma 0 Calma 0 -- -- 95
2020-01-08 01:00:00 2 0 Calma 4 Sur 0 -- -- 95
2020-01-08 00:00:00 3.1 0 Calma 7 Sur 0 -- -- 94
2020-01-07 23:00:00 3.8 0 Calma 4 Sur 0 -- -- 93
2020-01-07 22:00:00 5 0 Calma 5 Sur 0 -- -- 91
2020-01-07 21:00:00 5.2 0 Calma 6 Sur 0 -- -- 89
2020-01-07 20:00:00 5.9 4 Sudoeste 7 Sur 0 -- -- 92
2020-01-07 19:00:00 6.3 5 Sudoeste 6 Sudoeste 0 -- -- 93
2020-01-07 18:00:00 7.9 3 Oeste 6 Sudoeste 0 -- -- 86
2020-01-07 17:00:00 12.5 5 Oeste 7 Oeste 0 -- -- 72
2020-01-07 16:00:00 13 3 Oeste 5 Oeste 0 -- -- 73
2020-01-07 15:00:00 11.2 3 Nordeste 6 Noroeste 0 -- -- 73
2020-01-07 14:00:00 9.2 2 Norte 5 Nordeste 0 -- -- 87
2020-01-07 13:00:00 6.1 0 Calma 3 Nordeste 0 -- -- 98
2020-01-07 12:00:00 3.2 0 Calma 5 Noroeste 0 -- -- 100
2020-01-07 11:00:00 0.7 0 Calma 3 Noroeste 0 -- -- 99
2020-01-07 10:00:00 -0.6 0 Calma 3 Noroeste 0 -- -- 99
2020-01-07 09:00:00 -0.5 0 Calma 2 Nordeste 0 -- -- 98
2020-01-07 08:00:00 -0.8 0 Calma 3 Oeste 0 -- -- 98
2020-01-07 07:00:00 -0.6 0 Calma 0 Calma 0 -- -- 98
2020-01-07 06:00:00 0.2 0 Calma 2 Sur 0 -- -- 98
2020-01-07 05:00:00 0.2 0 Calma 4 Oeste 0 -- -- 97
2020-01-07 04:00:00 0.9 0 Calma 4 Noroeste 0 -- -- 97
2020-01-07 03:00:00 1.6 0 Calma 2 Oeste 0 -- -- 98
2020-01-07 02:00:00 1.9 0 Calma 6 Sur 0 -- -- 96
2020-01-07 01:00:00 2.3 0 Calma 5 Sur 0 -- -- 95
2020-01-07 00:00:00 3.5 3 Oeste 7 Sur 0 -- -- 94
2020-01-06 23:00:00 4 2 Sudoeste 8 Sur 0 -- -- 94
2020-01-06 22:00:00 4.4 2 Sudoeste 6 Sur 0 -- -- 93
2020-01-06 21:00:00 5 0 Calma 8 Sudoeste 0 -- -- 91
2020-01-06 20:00:00 6.1 4 Sur 9 Sudoeste 0 -- -- 92
2020-01-06 19:00:00 6.8 6 Sudoeste 8 Oeste 0 -- -- 90
2020-01-06 18:00:00 9.1 6 Sudoeste 8 Sudoeste 0 -- -- 85
2020-01-06 17:00:00 12.4 0 Calma 11 Noroeste 0 -- -- 72
2020-01-06 16:00:00 12.2 6 Noroeste 12 Noroeste 0 -- -- 72
2020-01-06 15:00:00 11.8 4 Noroeste 8 Oeste 0 -- -- 74
2020-01-06 14:00:00 9.6 3 Norte 7 Este 0 -- -- 81
2020-01-06 13:00:00 6.5 3 Norte 6 Norte 0 -- -- 96
2020-01-06 12:00:00 3.7 0 Calma 3 Noroeste 0 -- -- 100
2020-01-06 11:00:00 1.4 0 Calma 4 Oeste 0 -- -- 99
2020-01-06 10:00:00 0.6 2 Norte 3 Noroeste 0 -- -- 99